Time;durP1;ratioP1;P1;durP2;ratioP2;P2;SDS_P1;SDS_P2;PMS_P1;PMS_P2;Temp;Humidity;BMP_temperature;BMP_pressure;BME280_temperature;BME280_humidity;BME280_pressure;Samples;Min_cycle;Max_cycle;Signal;HPM_P1;HPM_P2
2022/11/15 00:01:52;;;;;;;66.57;40.00;;;;;;;7.31;71.46;100390.13;4966726;28;96948;-88
2022/11/15 00:04:36;;;;;;;66.47;41.90;;;;;;;7.25;71.68;100378.03;4951347;28;97528;-89
2022/11/15 00:07:20;;;;;;;64.65;41.08;;;;;;;7.28;71.83;100384.97;4938332;28;97558;-88
2022/11/15 00:10:04;;;;;;;67.22;40.88;;;;;;;7.27;71.24;100378.00;4922175;28;97703;-90
2022/11/15 00:12:48;;;;;;;69.00;39.97;;;;;;;7.21;71.26;100370.28;4951058;28;96770;-89
2022/11/15 00:15:38;;;;;;;66.55;42.28;;;;;;;7.21;71.46;100379.00;4937744;28;97388;-89
2022/11/15 00:18:22;;;;;;;66.85;40.80;;;;;;;7.20;71.58;100368.56;4921249;28;97949;-88
2022/11/15 00:21:15;;;;;;;61.75;37.95;;;;;;;7.20;71.50;100371.19;4946021;28;97099;-90
2022/11/15 00:23:59;;;;;;;59.45;39.40;;;;;;;7.20;71.23;100372.03;4955483;28;97432;-89
2022/11/15 00:26:43;;;;;;;61.08;37.38;;;;;;;7.20;71.15;100365.97;4944124;28;97233;-90
2022/11/15 00:29:26;;;;;;;64.68;38.58;;;;;;;7.17;71.33;100358.19;4942444;28;96978;-90
2022/11/15 00:32:10;;;;;;;59.50;38.28;;;;;;;7.16;71.13;100362.56;4932911;28;97039;-90
2022/11/15 00:34:54;;;;;;;64.22;38.42;;;;;;;7.14;71.26;100347.81;4946222;28;98666;-89
2022/11/15 00:37:38;;;;;;;61.58;38.40;;;;;;;7.17;70.94;100356.44;4943826;28;96731;-88
2022/11/15 00:40:22;;;;;;;61.47;38.40;;;;;;;7.16;71.02;100353.88;4945367;28;97141;-89
2022/11/15 00:43:06;;;;;;;60.20;37.38;;;;;;;7.10;70.86;100348.75;4927673;28;97143;-89
2022/11/15 00:45:50;;;;;;;61.00;37.25;;;;;;;7.08;71.03;100351.41;4923557;28;96825;-90
2022/11/15 00:48:34;;;;;;;59.80;37.25;;;;;;;7.06;70.67;100341.88;4937497;28;97113;-90
2022/11/15 00:51:18;;;;;;;59.55;37.17;;;;;;;7.02;70.69;100341.94;4933982;28;97077;-90
2022/11/15 00:54:02;;;;;;;63.42;37.97;;;;;;;7.01;70.91;100344.56;4949195;28;97176;-89
2022/11/15 00:56:46;;;;;;;53.35;34.60;;;;;;;6.97;71.08;100343.75;4927420;28;96942;-90
2022/11/15 00:59:30;;;;;;;60.08;36.60;;;;;;;6.97;70.77;100343.75;4935987;28;96754;-89
2022/11/15 01:02:14;;;;;;;55.67;35.20;;;;;;;6.96;70.56;100338.59;4935717;28;97175;-88
2022/11/15 01:04:58;;;;;;;58.85;36.17;;;;;;;6.96;71.00;100336.84;4922500;28;97251;-90
2022/11/15 01:07:42;;;;;;;60.78;37.20;;;;;;;6.96;70.74;100338.59;4935014;28;96948;-89
2022/11/15 01:10:26;;;;;;;58.13;37.28;;;;;;;6.95;70.63;100340.34;4928916;28;96667;-88
2022/11/15 01:13:10;;;;;;;57.88;35.53;;;;;;;6.94;70.23;100338.59;4934247;28;97136;-90
2022/11/15 01:15:54;;;;;;;56.10;35.72;;;;;;;6.92;70.51;100337.78;4940131;28;97237;-89
2022/11/15 01:18:38;;;;;;;58.55;34.53;;;;;;;6.89;70.53;100330.00;4952795;28;97314;-89
2022/11/15 01:21:22;;;;;;;55.88;35.30;;;;;;;6.92;70.71;100340.41;4940128;28;97422;-89
2022/11/15 01:24:07;;;;;;;55.50;33.60;;;;;;;6.92;70.07;100337.78;4949134;28;97222;-89
2022/11/15 01:26:51;;;;;;;53.58;35.00;;;;;;;6.75;70.38;100325.06;4947344;28;97149;-89
2022/11/15 01:29:35;;;;;;;55.67;34.72;;;;;;;6.87;70.36;100339.63;4934745;28;97150;-89
2022/11/15 01:32:19;;;;;;;55.13;35.50;;;;;;;6.80;70.03;100333.63;4935044;28;96907;-90
2022/11/15 01:35:03;;;;;;;54.22;35.97;;;;;;;6.78;70.20;100334.56;4938010;28;97250;-89
2022/11/15 01:37:47;;;;;;;57.15;34.17;;;;;;;6.74;70.07;100332.88;4934519;28;97102;-89
2022/11/15 01:40:31;;;;;;;52.60;33.00;;;;;;;6.70;70.65;100320.81;4952050;28;96763;-89
2022/11/15 01:43:25;;;;;;;55.58;34.45;;;;;;;6.69;70.09;100319.94;4952130;28;96749;-89
2022/11/15 01:46:21;;;;;;;55.97;34.42;;;;;;;6.60;69.89;100314.00;4955961;28;97067;-90
2022/11/15 01:49:12;;;;;;;55.30;35.07;;;;;;;6.60;70.27;100309.66;4940605;28;97073;-89
2022/11/15 01:51:56;;;;;;;54.58;33.42;;;;;;;6.64;69.95;100307.88;4938945;28;97101;-90
2022/11/15 01:54:40;;;;;;;54.28;34.28;;;;;;;6.64;70.05;100287.88;4940899;28;96738;-90
2022/11/15 01:57:25;;;;;;;52.67;33.67;;;;;;;6.64;70.11;100300.06;4936041;28;97731;-86
2022/11/15 02:00:09;;;;;;;57.58;35.95;;;;;;;6.60;70.23;100295.75;4926757;28;97254;-90
2022/11/15 02:02:54;;;;;;;60.77;36.90;;;;;;;6.61;69.95;100290.53;4947017;28;97038;-89
2022/11/15 02:05:38;;;;;;;55.67;36.33;;;;;;;6.59;70.03;100279.25;4929371;28;97279;-89
2022/11/15 02:08:21;;;;;;;54.78;34.30;;;;;;;6.58;69.55;100282.75;4932625;28;97098;-90
2022/11/15 02:11:09;;;;;;;55.28;33.97;;;;;;;6.58;69.59;100272.34;4933068;28;97059;-91
2022/11/15 02:13:54;;;;;;;57.83;34.20;;;;;;;6.58;69.64;100272.34;4925617;28;97320;-90
2022/11/15 02:17:19;;;;;;;54.90;34.17;;;;;;;6.54;69.80;100261.09;4921677;28;98293;-88
2022/11/15 02:20:29;;;;;;;56.55;33.90;;;;;;;6.52;69.58;100275.06;4928551;28;97478;-89
2022/11/15 02:23:37;;;;;;;59.10;36.83;;;;;;;6.52;69.43;100273.28;4958897;28;97339;-89
2022/11/15 02:26:48;;;;;;;55.97;35.13;;;;;;;6.47;69.82;100272.50;4934929;28;97196;-89
2022/11/15 02:29:44;;;;;;;54.97;34.13;;;;;;;6.44;70.01;100262.13;4943753;28;96752;-89
2022/11/15 02:32:31;;;;;;;56.23;33.40;;;;;;;6.44;69.63;100262.13;4944961;28;97103;-89
2022/11/15 02:35:15;;;;;;;53.10;33.60;;;;;;;6.44;69.90;100258.69;4946041;28;97254;-89
2022/11/15 02:38:17;;;;;;;55.10;36.17;;;;;;;6.43;69.41;100260.44;4949665;28;97995;-90
2022/11/15 02:41:03;;;;;;;55.75;34.58;;;;;;;6.34;69.63;100251.03;4936373;28;96887;-89
2022/11/15 02:43:57;;;;;;;57.53;35.00;;;;;;;6.33;69.71;100266.69;4944303;28;97125;-90
2022/11/15 02:47:14;;;;;;;57.80;35.03;;;;;;;6.30;69.64;100262.38;4931395;28;97388;-89
2022/11/15 02:50:01;;;;;;;57.50;34.03;;;;;;;6.22;69.70;100266.84;4942945;28;96845;-89
2022/11/15 02:52:46;;;;;;;55.93;33.77;;;;;;;6.16;69.75;100246.09;4921748;28;96852;-89
2022/11/15 02:55:35;;;;;;;59.63;34.93;;;;;;;6.22;69.53;100253.81;4937577;28;97172;-89
2022/11/15 02:58:42;;;;;;;56.33;33.72;;;;;;;6.11;69.50;100230.56;4942575;28;97810;-90
2022/11/15 03:01:48;;;;;;;51.63;32.13;;;;;;;6.13;69.82;100233.13;4942219;28;96729;-88
2022/11/15 03:04:38;;;;;;;55.67;34.90;;;;;;;6.19;69.59;100238.22;4952840;28;97861;-89
2022/11/15 03:07:31;;;;;;;54.20;35.42;;;;;;;6.05;69.43;100219.38;4944330;28;97135;-89
2022/11/15 03:10:21;;;;;;;54.22;33.58;;;;;;;6.15;69.86;100240.94;4949340;28;97131;-90
2022/11/15 03:13:17;;;;;;;55.67;33.93;;;;;;;6.17;69.73;100237.44;4964968;28;97308;-89
2022/11/15 03:16:42;;;;;;;56.95;32.00;;;;;;;6.15;69.62;100233.13;4952740;28;97992;-89
2022/11/15 03:19:53;;;;;;;51.80;32.70;;;;;;;6.13;69.87;100235.75;4960770;28;97166;-90
2022/11/15 03:22:42;;;;;;;53.13;32.70;;;;;;;6.15;69.39;100241.78;4945922;28;97354;-89
2022/11/15 03:25:28;;;;;;;55.93;31.40;;;;;;;6.13;69.61;100233.13;4938797;28;96757;-89
2022/11/15 03:28:16;;;;;;;59.72;34.78;;;;;;;6.12;69.46;100231.44;4923007;28;96911;-90
2022/11/15 03:31:46;;;;;;;51.67;32.15;;;;;;;6.08;69.50;100227.16;4944240;28;97114;-88
2022/11/15 03:34:07;;;;;;;50.55;31.08;;;;;;;6.07;69.66;100213.25;4952670;28;96905;-90
2022/11/15 03:36:52;;;;;;;54.40;33.95;;;;;;;6.11;69.58;100208.88;4955709;28;96790;-89
2022/11/15 03:39:36;;;;;;;50.63;32.92;;;;;;;6.08;69.77;100220.19;4936812;28;96795;-89
2022/11/15 03:42:45;;;;;;;51.17;31.55;;;;;;;6.08;69.52;100221.94;4952615;28;97172;-90
2022/11/15 03:45:33;;;;;;;49.27;32.30;;;;;;;6.06;69.81;100215.91;4934750;28;97074;-89
2022/11/15 03:48:22;;;;;;;52.75;32.83;;;;;;;6.05;69.85;100207.22;4955826;28;97142;-89
2022/11/15 03:51:06;;;;;;;49.38;31.48;;;;;;;6.06;69.69;100202.88;4930324;28;96918;-89
2022/11/15 03:53:50;;;;;;;54.90;31.92;;;;;;;5.99;69.57;100199.50;4938008;28;97682;-89
2022/11/15 03:56:34;;;;;;;57.90;32.28;;;;;;;5.98;70.17;100202.13;4945064;28;97330;-90
2022/11/15 03:59:18;;;;;;;60.35;33.83;;;;;;;5.98;70.02;100207.34;4947738;28;97391;-90
2022/11/15 04:02:02;;;;;;;51.53;32.25;;;;;;;5.94;69.90;100208.28;4954058;28;97088;-90
2022/11/15 04:04:46;;;;;;;54.30;32.58;;;;;;;5.95;69.93;100207.41;4948675;28;96837;-89
2022/11/15 04:07:30;;;;;;;51.40;32.60;;;;;;;5.90;69.91;100208.31;4953555;28;96879;-88
2022/11/15 04:10:14;;;;;;;52.88;31.48;;;;;;;5.96;69.80;100216.91;4938768;28;96773;-89
2022/11/15 04:12:58;;;;;;;49.37;31.23;;;;;;;5.95;69.82;100208.25;4948609;28;96776;-91
2022/11/15 04:15:42;;;;;;;52.20;32.53;;;;;;;5.97;69.56;100211.69;4942741;28;97169;-90
2022/11/15 04:18:26;;;;;;;52.57;32.43;;;;;;;5.92;69.85;100208.28;4937242;28;97103;-88
2022/11/15 04:24:13;;;;;;;53.55;31.98;;;;;;;5.94;69.89;100211.75;4945959;28;97141;-90
2022/11/15 04:26:57;;;;;;;48.92;31.17;;;;;;;5.92;69.95;100205.66;4931542;28;97547;-90
2022/11/15 04:29:41;;;;;;;52.73;32.17;;;;;;;5.91;69.89;100214.38;4948130;28;97088;-90
2022/11/15 04:32:25;;;;;;;52.93;31.37;;;;;;;5.85;69.80;100210.13;4964389;28;97126;-90
2022/11/15 04:35:09;;;;;;;53.95;31.92;;;;;;;5.88;70.00;100198.81;4962169;28;97896;-90
2022/11/15 04:37:54;;;;;;;49.60;32.93;;;;;;;5.90;69.69;100195.28;4938646;28;97241;-89
2022/11/15 04:40:38;;;;;;;50.53;32.70;;;;;;;5.86;69.57;100185.78;4930999;28;97007;-88
2022/11/15 04:43:22;;;;;;;55.50;32.03;;;;;;;5.84;69.73;100186.69;4950984;28;97320;-90
2022/11/15 04:46:06;;;;;;;52.67;32.73;;;;;;;5.85;69.94;100176.25;4934757;28;96681;-89
2022/11/15 04:48:51;;;;;;;50.63;32.43;;;;;;;5.84;69.85;100181.47;4935648;28;97303;-91
2022/11/15 04:51:35;;;;;;;53.00;33.50;;;;;;;5.87;69.77;100184.03;4929456;28;97777;-89
2022/11/15 04:54:19;;;;;;;52.10;33.93;;;;;;;5.84;69.58;100190.16;4945947;28;96696;-89
2022/11/15 04:57:03;;;;;;;51.13;31.97;;;;;;;5.80;69.91;100185.88;4931701;28;96778;-90
2022/11/15 04:59:46;;;;;;;54.30;33.33;;;;;;;5.78;69.76;100181.59;4943481;28;97075;-89
2022/11/15 05:04:18;;;;;;;52.27;32.90;;;;;;;5.79;69.99;100185.91;4933189;28;97085;-89
2022/11/15 05:05:35;;;;;;;54.77;32.70;;;;;;;5.77;69.74;100180.72;4951137;28;98341;-88
2022/11/15 05:08:19;;;;;;;52.30;32.20;;;;;;;5.80;69.74;100188.50;4939909;28;96812;-89
2022/11/15 05:11:02;;;;;;;53.05;31.80;;;;;;;5.77;69.61;100185.94;4931805;28;97371;-88
2022/11/15 05:13:47;;;;;;;52.80;31.83;;;;;;;5.80;70.03;100182.44;4936577;28;96703;-89
2022/11/15 05:16:31;;;;;;;59.85;32.72;;;;;;;5.74;69.93;100182.53;4927044;28;97192;-89
2022/11/15 05:19:15;;;;;;;47.77;30.07;;;;;;;5.71;70.00;100174.78;4937137;28;97185;-89
2022/11/15 05:21:59;;;;;;;52.13;33.03;;;;;;;5.73;69.84;100175.59;4936875;28;97615;-89
2022/11/15 05:24:43;;;;;;;46.90;30.10;;;;;;;5.71;69.78;100178.22;4931543;28;97254;-90
2022/11/15 05:27:27;;;;;;;51.07;31.70;;;;;;;5.66;70.14;100173.09;4933210;28;97097;-89
2022/11/15 05:30:11;;;;;;;55.20;33.75;;;;;;;5.65;69.87;100173.97;4937415;28;97126;-89
2022/11/15 05:32:55;;;;;;;50.77;31.73;;;;;;;5.64;69.71;100185.28;4933110;28;97140;-90
2022/11/15 05:35:42;;;;;;;51.27;30.57;;;;;;;5.61;69.84;100180.13;4938217;28;96841;-91
2022/11/15 05:38:26;;;;;;;55.93;32.43;;;;;;;5.64;70.13;100179.19;4928054;28;96825;-90
2022/11/15 05:41:11;;;;;;;45.75;30.55;;;;;;;5.63;69.68;100177.50;4934148;28;97220;-89
2022/11/15 05:43:55;;;;;;;52.77;33.00;;;;;;;5.60;69.83;100169.72;4932227;28;97185;-89
2022/11/15 05:46:41;;;;;;;55.53;32.33;;;;;;;5.50;69.66;100152.50;4943324;28;97114;-91
2022/11/15 05:49:30;;;;;;;51.15;31.60;;;;;;;5.59;69.36;100163.66;4941380;28;97277;-90
2022/11/15 05:52:17;;;;;;;58.27;32.20;;;;;;;5.57;69.30;100165.44;4935659;28;96800;-88
2022/11/15 05:55:02;;;;;;;53.90;33.80;;;;;;;5.50;69.50;100173.34;4936528;28;97624;-92
2022/11/15 05:57:46;;;;;;;48.23;31.30;;;;;;;5.55;69.54;100168.94;4934088;28;97233;-91
2022/11/15 06:00:30;;;;;;;50.10;32.08;;;;;;;5.45;69.16;100153.47;4929119;28;97229;-94
2022/11/15 06:03:14;;;;;;;60.13;33.57;;;;;;;5.53;69.21;100168.97;4937069;28;96713;-93
2022/11/15 06:05:58;;;;;;;55.47;33.90;;;;;;;5.52;69.35;100167.22;4942120;28;97542;-93
2022/11/15 06:08:42;;;;;;;57.28;34.85;;;;;;;5.52;69.12;100166.38;4933096;28;97668;-93
2022/11/15 06:11:26;;;;;;;53.13;35.13;;;;;;;5.54;69.62;100167.22;4949144;28;96702;-94
2022/11/15 06:14:10;;;;;;;53.17;32.23;;;;;;;5.50;69.48;100160.34;4936147;28;96937;-93
2022/11/15 06:16:54;;;;;;;50.70;32.17;;;;;;;5.40;69.34;100149.22;4936013;28;97132;-93
2022/11/15 06:19:38;;;;;;;54.93;33.00;;;;;;;5.49;69.66;100158.63;4940160;28;97144;-94
2022/11/15 06:22:22;;;;;;;50.53;32.20;;;;;;;5.53;69.76;100157.72;4933773;28;97167;-90
2022/11/15 06:25:06;;;;;;;48.60;31.93;;;;;;;5.57;69.76;100157.63;4938040;28;97850;-96
2022/11/15 06:27:55;;;;;;;55.27;34.33;;;;;;;5.59;69.36;100158.47;4937340;28;97078;-96
2022/11/15 06:30:41;;;;;;;52.87;33.17;;;;;;;5.66;69.47;100160.06;4934873;28;97038;-96
2022/11/15 06:33:26;;;;;;;48.90;32.40;;;;;;;5.61;69.83;100168.84;4931466;28;96722;-96
2022/11/15 06:36:16;;;;;;;55.40;34.13;;;;;;;5.57;70.04;100183.66;4940141;28;97213;-96
2022/11/15 06:39:00;;;;;;;51.57;32.87;;;;;;;5.58;69.56;100174.09;4928396;28;97212;-91
2022/11/15 06:41:44;;;;;;;59.03;33.27;;;;;;;5.59;69.99;100170.63;4941490;28;97299;-88
2022/11/15 06:44:28;;;;;;;58.80;32.10;;;;;;;5.63;70.17;100177.50;4939788;28;97260;-89
2022/11/15 06:47:12;;;;;;;48.93;30.87;;;;;;;5.59;69.90;100168.88;4946854;28;97235;-90
2022/11/15 06:49:56;;;;;;;59.13;33.60;;;;;;;5.56;69.99;100174.13;4946365;28;96998;-90
2022/11/15 06:52:40;;;;;;;57.47;31.53;;;;;;;5.53;70.48;100170.72;4937836;28;97119;-92
2022/11/15 06:55:24;;;;;;;57.80;33.63;;;;;;;5.64;70.26;100187.91;4946596;28;97171;-91
2022/11/15 06:58:07;;;;;;;54.07;32.73;;;;;;;5.56;70.42;100176.75;4941498;28;97076;-90
2022/11/15 07:00:51;;;;;;;49.97;32.87;;;;;;;5.73;69.89;100193.81;4939190;28;97104;-90
2022/11/15 07:03:40;;;;;;;53.60;32.90;;;;;;;5.77;70.00;100188.53;4940036;28;97116;-91
2022/11/15 07:06:24;;;;;;;53.90;33.80;;;;;;;5.91;69.67;100188.31;4939467;28;96859;-90
2022/11/15 07:09:08;;;;;;;49.43;31.83;;;;;;;6.09;69.34;100197.59;4931944;28;97759;-93
2022/11/15 07:11:52;;;;;;;56.60;33.33;;;;;;;6.20;69.47;100181.78;4926262;28;97280;-91
2022/11/15 07:14:36;;;;;;;49.83;32.07;;;;;;;6.43;68.95;100189.13;4935303;28;97321;-91
2022/11/15 07:17:20;;;;;;;50.80;33.08;;;;;;;6.63;68.77;100201.78;4941629;28;96802;-90
2022/11/15 07:20:05;;;;;;;52.70;34.22;;;;;;;6.82;68.34;100202.31;4950100;28;96834;-90
2022/11/15 07:22:48;;;;;;;53.42;32.05;;;;;;;6.98;67.77;100201.06;4949893;28;97658;-91
2022/11/15 07:25:32;;;;;;;58.88;31.85;;;;;;;7.12;67.24;100196.41;4941323;28;97771;-90
2022/11/15 07:28:17;;;;;;;58.17;33.15;;;;;;;7.27;67.23;100184.78;4928363;28;96887;-89
2022/11/15 07:31:08;;;;;;;52.95;32.67;;;;;;;7.49;67.04;100187.75;4925632;28;96822;-90
2022/11/15 07:33:52;;;;;;;81.00;56.83;;;;;;;7.66;66.51;100188.22;4953989;28;108030;-89
2022/11/15 07:36:36;;;;;;;71.88;45.15;;;;;;;7.75;65.77;100184.53;4944307;28;97139;-89
2022/11/15 07:39:20;;;;;;;54.05;34.35;;;;;;;7.92;65.80;100181.50;4979203;28;96867;-89
2022/11/15 07:45:07;;;;;;;50.50;32.17;;;;;;;8.24;64.92;100170.19;4957596;28;97810;-90
2022/11/15 07:47:51;;;;;;;53.92;34.00;;;;;;;8.41;64.53;100166.28;4954914;28;98239;-89
2022/11/15 07:50:35;;;;;;;53.88;32.58;;;;;;;8.52;64.75;100165.13;4969444;28;97000;-91
2022/11/15 07:53:19;;;;;;;48.88;31.52;;;;;;;8.69;64.09;100164.63;4957457;28;96736;-89
2022/11/15 07:56:07;;;;;;;52.33;32.47;;;;;;;8.95;64.20;100176.09;4961040;28;97180;-89
2022/11/15 07:58:51;;;;;;;56.00;32.38;;;;;;;9.06;63.91;100171.41;4953040;28;97157;-88
2022/11/15 08:01:35;;;;;;;60.80;33.53;;;;;;;9.21;63.89;100172.69;4948086;28;97525;-89
2022/11/15 08:04:19;;;;;;;59.25;32.90;;;;;;;9.31;63.59;100171.50;4952502;28;97247;-89
2022/11/15 08:07:03;;;;;;;49.67;32.20;;;;;;;9.42;62.99;100158.91;4944324;28;97731;-87
2022/11/15 08:09:47;;;;;;;51.22;32.78;;;;;;;9.58;62.08;100166.28;4978358;28;97062;-88
2022/11/15 08:12:31;;;;;;;48.90;32.53;;;;;;;9.65;61.72;100144.22;4941280;28;96900;-88
2022/11/15 08:15:16;;;;;;;52.83;32.90;;;;;;;9.81;61.53;100153.28;4952123;28;97349;-91
2022/11/15 08:18:02;;;;;;;49.50;33.22;;;;;;;10.04;61.64;100162.16;4955232;28;97014;-87
2022/11/15 08:20:47;;;;;;;45.78;32.60;;;;;;;10.16;61.30;100156.47;4957564;28;97385;-84
2022/11/15 08:23:31;;;;;;;48.17;31.17;;;;;;;10.26;61.05;100149.97;4955927;28;97685;-87
2022/11/15 08:26:16;;;;;;;52.13;32.80;;;;;;;10.42;61.10;100145.94;4989411;28;96840;-84
2022/11/15 08:29:00;;;;;;;48.45;31.67;;;;;;;10.43;60.11;100137.16;4957908;28;97148;-85
2022/11/15 08:31:44;;;;;;;47.00;31.88;;;;;;;10.59;60.63;100150.59;4978787;28;97316;-81
2022/11/15 08:34:28;;;;;;;53.75;32.58;;;;;;;10.77;60.28;100143.78;4949425;28;97344;-83
2022/11/15 08:37:12;;;;;;;50.20;32.60;;;;;;;10.95;60.24;100147.47;4972583;28;96852;-92
2022/11/15 08:39:56;;;;;;;51.03;32.88;;;;;;;11.05;59.65;100142.72;4968585;28;97166;-89
2022/11/15 08:42:40;;;;;;;50.80;32.97;;;;;;;11.13;59.65;100138.03;4974343;28;96884;-91
2022/11/15 08:45:24;;;;;;;50.97;33.83;;;;;;;11.26;59.41;100133.16;4954818;28;98145;-89
2022/11/15 08:48:08;;;;;;;54.40;33.83;;;;;;;11.45;59.35;100130.63;4938098;28;96887;-87
2022/11/15 08:50:55;;;;;;;56.45;33.38;;;;;;;11.59;58.71;100122.19;4939648;28;98645;-86
2022/11/15 08:53:40;;;;;;;60.03;33.80;;;;;;;11.62;58.53;100119.44;4990342;28;97337;-86
2022/11/15 08:56:24;;;;;;;56.42;32.47;;;;;;;11.94;58.99;100126.00;4956778;28;96906;-85
2022/11/15 08:59:08;;;;;;;58.42;33.20;;;;;;;12.08;58.67;100128.03;4961222;28;97511;-87
2022/11/15 09:01:52;;;;;;;49.88;32.35;;;;;;;12.19;57.59;100113.50;4964177;28;97147;-85
2022/11/15 09:04:36;;;;;;;55.35;32.90;;;;;;;12.27;57.18;100104.41;4970027;28;96929;-86
2022/11/15 09:07:20;;;;;;;45.60;30.42;;;;;;;12.59;57.41;100121.38;4947951;28;97041;-86
2022/11/15 09:10:04;;;;;;;49.60;31.63;;;;;;;12.80;57.21;100112.50;4945728;28;96760;-85
2022/11/15 09:12:48;;;;;;;45.78;30.50;;;;;;;13.00;57.46;100121.22;4951524;28;97197;-86
2022/11/15 09:15:32;;;;;;;54.60;30.65;;;;;;;13.12;56.44;100120.69;4977975;28;97871;-85
2022/11/15 09:18:16;;;;;;;49.67;32.83;;;;;;;13.24;56.67;100122.72;4948931;28;97613;-85
2022/11/15 09:21:02;;;;;;;50.80;30.77;;;;;;;13.39;56.48;100129.06;4963882;28;96876;-85
2022/11/15 09:23:46;;;;;;;48.83;31.20;;;;;;;13.56;55.88;100123.81;4952684;28;97142;-83
2022/11/15 09:26:30;;;;;;;41.83;27.67;;;;;;;13.77;55.58;100124.53;4954911;28;97772;-85
2022/11/15 09:29:14;;;;;;;48.55;26.52;;;;;;;13.92;55.29;100119.41;4972916;28;96968;-80
2022/11/15 09:31:58;;;;;;;40.38;27.55;;;;;;;14.01;54.70;100103.94;4955338;28;96992;-84
2022/11/15 09:34:42;;;;;;;41.90;28.30;;;;;;;14.30;54.92;100106.00;4955666;28;97116;-85
2022/11/15 09:37:26;;;;;;;48.35;29.15;;;;;;;14.40;54.57;100109.88;4949757;28;97720;-82
2022/11/15 09:40:15;;;;;;;49.10;28.15;;;;;;;14.47;54.71;100111.25;4969530;28;96836;-83
2022/11/15 09:43:17;;;;;;;42.40;26.55;;;;;;;14.55;54.64;100101.16;4958999;28;97298;-84
2022/11/15 09:46:05;;;;;;;47.97;25.30;;;;;;;14.62;54.28;100099.03;4967802;28;97641;-83
2022/11/15 09:48:57;;;;;;;38.50;28.58;;;;;;;14.56;53.93;100097.56;4962934;28;97311;-85
2022/11/15 09:51:34;;;;;;;45.85;26.75;;;;;;;14.71;54.41;100094.09;4959450;28;96908;-86
2022/11/15 09:54:15;;;;;;;35.88;27.33;;;;;;;14.73;54.25;100086.09;4955416;28;97392;-86
2022/11/15 09:56:42;;;;;;;47.10;29.10;;;;;;;14.82;54.01;100084.72;4977682;28;101326;-88
2022/11/15 09:59:20;;;;;;;41.88;26.90;;;;;;;14.83;53.75;100089.91;5003662;28;101542;-85
2022/11/15 10:01:58;;;;;;;38.80;27.38;;;;;;;14.82;54.05;100075.00;4967767;28;96817;-82
2022/11/15 10:04:25;;;;;;;34.55;25.40;;;;;;;14.71;54.05;100067.66;4958059;28;97134;-85
2022/11/15 10:07:01;;;;;;;35.92;24.70;;;;;;;14.71;53.86;100065.03;4954097;28;97268;-86
2022/11/15 10:09:53;;;;;;;31.63;22.90;;;;;;;14.77;53.72;100066.47;4956052;28;98075;-85
2022/11/15 10:12:18;;;;;;;35.17;23.95;;;;;;;14.78;53.91;100064.72;4965982;28;96818;-86
2022/11/15 10:14:46;;;;;;;40.10;24.25;;;;;;;14.65;53.86;100051.31;4954926;28;96880;-86
2022/11/15 10:17:20;;;;;;;34.05;24.27;;;;;;;14.68;53.91;100059.06;4934424;28;101119;-86
2022/11/15 10:20:12;;;;;;;35.08;24.63;;;;;;;14.62;54.30;100052.34;4970181;28;97967;-87
2022/11/15 10:22:47;;;;;;;40.30;22.52;;;;;;;14.62;54.41;100051.47;4975599;28;97169;-85
2022/11/15 10:25:17;;;;;;;34.97;23.13;;;;;;;14.67;54.56;100055.56;4941217;28;97057;-86
2022/11/15 10:27:54;;;;;;;35.28;22.15;;;;;;;14.65;54.77;100044.22;4982823;28;98555;-87
2022/11/15 10:30:20;;;;;;;29.60;21.65;;;;;;;14.62;55.60;100043.56;5004052;28;98591;-86
2022/11/15 10:32:47;;;;;;;35.33;20.95;;;;;;;14.60;55.43;100038.38;4951086;28;96814;-86
2022/11/15 10:35:28;;;;;;;30.13;19.15;;;;;;;14.52;55.02;100045.03;4972158;28;96972;-85
2022/11/15 10:38:05;;;;;;;25.38;19.25;;;;;;;14.35;55.12;100024.78;4972451;28;97996;-87
2022/11/15 10:40:31;;;;;;;20.73;16.27;;;;;;;14.41;55.24;100035.84;4970381;28;100212;-87
2022/11/15 10:43:16;;;;;;;25.35;15.05;;;;;;;14.19;55.55;100015.00;4935148;28;97350;-87
2022/11/15 10:45:42;;;;;;;21.67;15.15;;;;;;;14.20;55.46;100018.53;4972510;28;97265;-88
2022/11/15 10:48:13;;;;;;;24.45;15.45;;;;;;;14.22;56.11;100022.81;4952824;28;98191;-90
2022/11/15 10:50:46;;;;;;;23.90;16.77;;;;;;;14.22;56.69;100024.56;4955914;28;99869;-87
2022/11/15 10:53:22;;;;;;;21.85;16.27;;;;;;;14.18;56.51;100015.13;4938040;28;97332;-87
2022/11/15 10:55:50;;;;;;;22.02;16.00;;;;;;;14.09;56.73;100015.63;4977647;28;97046;-88
2022/11/15 10:58:24;;;;;;;23.90;16.55;;;;;;;13.96;56.24;99986.38;4939131;28;100554;-87
2022/11/15 11:00:52;;;;;;;22.15;16.35;;;;;;;14.05;56.43;100007.00;4963445;28;100688;-88
2022/11/15 11:03:34;;;;;;;21.70;16.25;;;;;;;14.01;56.26;100010.72;4956839;28;97201;-86
2022/11/15 11:06:08;;;;;;;20.80;14.63;;;;;;;13.89;56.77;100001.69;4935232;28;97859;-87
2022/11/15 11:08:34;;;;;;;17.83;14.35;;;;;;;13.90;57.22;100003.38;4971158;28;98193;-87
2022/11/15 11:11:01;;;;;;;18.52;13.70;;;;;;;13.82;57.17;100000.31;4935394;28;100317;-87
2022/11/15 11:13:38;;;;;;;18.98;14.05;;;;;;;13.74;57.20;99997.22;4946835;28;97273;-87
2022/11/15 11:16:30;;;;;;;20.15;14.25;;;;;;;13.74;57.43;100005.97;4948243;28;97200;-87
2022/11/15 11:19:02;;;;;;;18.02;14.00;;;;;;;13.70;56.93;100000.94;4952415;28;101672;-86
2022/11/15 11:21:52;;;;;;;15.98;11.80;;;;;;;13.63;57.71;99992.50;4953767;28;100365;-87
2022/11/15 11:24:46;;;;;;;17.27;12.07;;;;;;;13.57;57.28;99988.38;4966504;28;97404;-87
2022/11/15 11:27:48;;;;;;;19.55;12.23;;;;;;;13.57;57.29;99984.91;4992546;28;96865;-87
2022/11/15 11:30:23;;;;;;;17.55;12.23;;;;;;;13.45;57.01;99967.94;4967468;28;100159;-87
2022/11/15 11:32:48;;;;;;;16.33;13.25;;;;;;;13.44;57.08;99963.59;4958281;28;98370;-89
2022/11/15 11:35:20;;;;;;;21.27;13.27;;;;;;;13.46;57.56;99981.94;4979488;28;96762;-86
2022/11/15 11:37:50;;;;;;;23.80;14.80;;;;;;;13.42;57.78;99976.00;4941979;28;97072;-87
2022/11/15 11:40:30;;;;;;;20.77;14.60;;;;;;;13.35;57.92;99977.22;4956669;28;98803;-87
2022/11/15 11:43:15;;;;;;;20.42;14.10;;;;;;;13.32;58.47;99970.34;4936291;28;100961;-88
2022/11/15 11:45:49;;;;;;;21.67;13.48;;;;;;;13.13;57.81;99935.28;4974354;28;96995;-87
2022/11/15 11:48:20;;;;;;;19.25;14.35;;;;;;;13.10;58.38;99960.00;4957680;28;96899;-87
2022/11/15 11:50:46;;;;;;;18.40;13.90;;;;;;;13.09;59.03;99954.81;4924386;28;101342;-87
2022/11/15 11:53:25;;;;;;;18.30;13.27;;;;;;;13.09;58.65;99950.38;4962161;28;101916;-87
2022/11/15 11:55:57;;;;;;;18.98;14.48;;;;;;;12.86;58.71;99914.66;4947514;28;97362;-89
2022/11/15 11:58:35;;;;;;;23.05;13.57;;;;;;;13.08;59.10;99946.03;4966859;28;97333;-87
2022/11/15 12:01:16;;;;;;;17.48;12.13;;;;;;;12.95;59.02;99928.31;4970377;28;97724;-87
2022/11/15 12:03:48;;;;;;;13.27;10.88;;;;;;;13.07;58.77;99940.84;4960534;28;100245;-86
2022/11/15 12:06:33;;;;;;;17.67;11.85;;;;;;;13.06;59.12;99937.38;4988512;28;96858;-88
2022/11/15 12:09:20;;;;;;;17.15;12.27;;;;;;;13.05;59.00;99942.69;4978274;28;98042;-87
2022/11/15 12:12:01;;;;;;;17.80;12.43;;;;;;;12.97;58.84;99935.16;4948365;28;100288;-87
2022/11/15 12:14:35;;;;;;;15.52;12.00;;;;;;;12.98;59.03;99931.63;4968181;28;98449;-89
2022/11/15 12:17:01;;;;;;;18.92;13.43;;;;;;;12.91;59.82;99931.09;4959467;28;98328;-89
2022/11/15 12:19:28;;;;;;;17.02;12.27;;;;;;;12.90;60.06;99928.53;4980400;28;97081;-90
2022/11/15 12:22:05;;;;;;;15.93;12.00;;;;;;;12.90;59.56;99924.09;4929095;28;101654;-90
2022/11/15 12:24:56;;;;;;;16.65;12.52;;;;;;;12.89;59.94;99924.19;4952924;28;101596;-90
2022/11/15 12:27:32;;;;;;;16.75;12.82;;;;;;;12.85;59.72;99912.09;4975659;28;97387;-89
2022/11/15 12:30:02;;;;;;;16.38;12.30;;;;;;;12.90;59.72;99915.34;4964469;28;97253;-89
2022/11/15 12:32:34;;;;;;;14.20;12.10;;;;;;;12.90;60.15;99910.06;4967318;28;99779;-92
2022/11/15 12:35:02;;;;;;;16.27;12.25;;;;;;;12.87;59.91;99902.34;4941739;28;100841;-92
2022/11/15 12:37:42;;;;;;;17.13;11.25;;;;;;;12.77;59.69;99894.03;4958808;28;98177;-91